Venice, CA

12:49 PDT le 26 juillet 2016 (GMT -0700)
Abbot Kinney | | Change Station

Alt. 20 ft 33.99 °N, 118.47 °W | Updated 45 seconds ago

Clear
Ciel dégagé
73.3 ° F
Paraît 73 ° F
N
0.0
Vent Variable Vent de ONO
Gusts 0.0 mph

Aujourd'hui
Haut(e) -- | Bas -- ° F
--% Risque de précip.
Hier
Haut(e) -- | Bas -- ° F
Precip. -- pouce
Pression 29.90 pouce
Visibilité 10.0 Miles terrestres
Nuages Ciel dégagé
indice de chaleur 73 ° F
Point de rosée 68 ° F
Humidité 83%
Précipitations 0.00 pouce
Profondeur de la couche neigeuse Non disponible.
6:01 AM 7:58 PM
Lune gibbeuse décroissante, 51% visible
METAR KSMO 261851Z 20008KT 10SM CLR 25/18 A2991 RMK AO2 SLP125 FU DSNT N FG BNK S-W T02500178
Pression 29.90 pouce
Visibilité 10.0 Miles terrestres
Nuages Ciel dégagé
indice de chaleur 73 ° F
Point de rosée 68 ° F
Humidité 83%
Précipitations 0.00 pouce
Profondeur de la couche neigeuse Non disponible.
6:01 AM 7:58 PM
Lune gibbeuse décroissante, 51% visible
METAR KSMO 261851Z 20008KT 10SM CLR 25/18 A2991 RMK AO2 SLP125 FU DSNT N FG BNK S-W T02500178

10-Day Weather Forecast

Almanac

Astronomie

Jul. 26, 2016 Lever Coucher
Temps réel
Crépuscule civil
Crépuscule nautique
Crépuscule astronomique
Lune
Durée de lumière visible
Longueur du jour
Tomorrow will be .
, % of the Moon is Illuminated

Extrêmes aujourd'hui

State Highs State Lows

Community

WunderPhotos

Upload Photos

1,927,667 Photos téléchargées !

WunderBlog® & News

Nearby

Qualité de l'air

  Qualité de l'air Indice de la qualité de l'air Polluant
Not available.

Épaisseur de neige

Station Depth Altitude

Activité sismique

Ville Distance Mag. Time & Date
Minimum magnitude displayed is 2.5.

Températures des eaux côtières

Lieu Température

Stations

Stations météo à proximité

Emplacement de la station Température Refroidissement éolien Point de rosée Humidité Vent Precip. Alt. Mise à jour Type
                   

Watches & Warnings

There are currently no watches in effect.